createdAt,value
2018-06-03T00:00:52.903Z,101540.81
2018-06-03T00:03:20.522Z,101536.89
2018-06-03T00:05:48.215Z,101533.41
2018-06-03T00:08:15.834Z,101536.98
2018-06-03T00:10:43.470Z,101537.45
2018-06-03T00:13:11.091Z,101542.31
2018-06-03T00:15:38.738Z,101548.94
2018-06-03T00:18:06.355Z,101547.62
2018-06-03T00:20:45.785Z,101552.06
2018-06-03T00:23:13.400Z,101549.03
2018-06-03T00:25:41.048Z,101552.14
2018-06-03T00:28:08.663Z,101548.64
2018-06-03T00:30:36.298Z,101545.19
2018-06-03T00:33:03.920Z,101541.28
2018-06-03T00:35:31.559Z,101539.53
2018-06-03T00:37:59.183Z,101548.31
2018-06-03T00:40:26.850Z,101550.06
2018-06-03T00:42:54.479Z,101551.41
2018-06-03T00:45:22.118Z,101554.95
2018-06-03T00:47:49.740Z,101552.77
2018-06-03T00:50:18.219Z,101550.18
2018-06-03T00:52:45.838Z,101552.83
2018-06-03T00:55:13.483Z,101553.75
2018-06-03T00:57:41.094Z,101553.77
2018-06-03T01:00:08.738Z,101555.12
2018-06-03T01:02:36.427Z,101556.02
2018-06-03T01:05:04.071Z,101554.72
2018-06-03T01:07:31.682Z,101559.56
2018-06-03T01:09:59.344Z,101561.77
2018-06-03T01:12:26.967Z,101558.70
2018-06-03T01:14:54.637Z,101564.86
2018-06-03T01:17:22.283Z,101566.17
2018-06-03T01:19:49.899Z,101569.27
2018-06-03T01:22:17.543Z,101574.55
2018-06-03T01:24:45.154Z,101572.81
2018-06-03T01:27:12.840Z,101570.67
2018-06-03T01:29:40.468Z,101576.39
2018-06-03T01:32:08.115Z,101566.33
2018-06-03T01:34:35.743Z,101568.55
2018-06-03T01:37:03.492Z,101563.73
2018-06-03T01:39:31.119Z,101561.11
2018-06-03T01:41:58.758Z,101562.42
2018-06-03T01:44:26.375Z,101555.02
2018-06-03T01:46:54.031Z,101553.72
2018-06-03T01:49:21.694Z,101551.52
2018-06-03T01:51:49.331Z,101544.53
2018-06-03T01:54:17.027Z,101545.41
2018-06-03T01:56:44.679Z,101543.64
2018-06-03T01:59:12.303Z,101544.53
2018-06-03T02:01:39.943Z,101545.41
2018-06-03T02:04:07.566Z,101540.61
2018-06-03T02:06:35.207Z,101541.92
2018-06-03T02:09:02.827Z,101540.62
2018-06-03T02:11:30.467Z,101546.78
2018-06-03T02:13:58.115Z,101545.89
2018-06-03T02:16:25.779Z,101547.22
2018-06-03T02:18:53.400Z,101546.37
2018-06-03T02:21:21.047Z,101543.78
2018-06-03T02:23:48.667Z,101539.83
2018-06-03T02:26:16.283Z,101551.66
2018-06-03T02:28:43.987Z,101549.01
2018-06-03T02:31:11.607Z,101546.84
2018-06-03T02:33:39.261Z,101553.41
2018-06-03T02:36:06.975Z,101557.34
2018-06-03T02:38:34.615Z,101556.90
2018-06-03T02:41:02.317Z,101558.23
2018-06-03T02:43:30.065Z,101550.80
2018-06-03T02:45:57.689Z,101552.52
2018-06-03T02:48:25.339Z,101554.27
2018-06-03T02:50:52.963Z,101556.45
2018-06-03T02:53:20.612Z,101558.19
2018-06-03T02:55:48.270Z,101559.02
2018-06-03T02:58:15.917Z,101556.84
2018-06-03T03:00:43.599Z,101554.61
2018-06-03T03:03:11.260Z,101558.11
2018-06-03T03:05:38.928Z,101556.33
2018-06-03T03:08:06.580Z,101557.17
2018-06-03T03:10:34.243Z,101558.45
2018-06-03T03:13:01.887Z,101557.58
2018-06-03T03:15:29.571Z,101557.12
2018-06-03T03:17:57.210Z,101563.69
2018-06-03T03:20:24.840Z,101561.48
2018-06-03T03:22:52.557Z,101563.67
2018-06-03T03:25:20.223Z,101565.45
2018-06-03T03:27:47.874Z,101554.90
2018-06-03T03:30:15.487Z,101564.09
2018-06-03T03:32:43.139Z,101565.41
2018-06-03T03:35:10.751Z,101564.48
2018-06-03T03:37:38.431Z,101564.48
2018-06-03T03:40:06.060Z,101556.59
2018-06-03T03:42:33.679Z,101560.53
2018-06-03T03:45:01.419Z,101568.39
2018-06-03T03:47:29.043Z,101570.13
2018-06-03T03:49:56.683Z,101570.13
2018-06-03T03:52:25.242Z,101570.52
2018-06-03T03:54:52.986Z,101573.14
2018-06-03T03:57:20.655Z,101575.34
2018-06-03T03:59:48.304Z,101577.09
2018-06-03T04:02:15.971Z,101577.97
2018-06-03T04:04:43.615Z,101584.11
2018-06-03T04:07:11.227Z,101584.55
2018-06-03T04:09:38.964Z,101586.31
2018-06-03T04:12:06.588Z,101587.61
2018-06-03T04:14:34.235Z,101593.34
2018-06-03T04:17:01.851Z,101589.83
2018-06-03T04:19:29.495Z,101589.42
2018-06-03T04:21:57.886Z,101581.95
2018-06-03T04:24:25.527Z,101583.25
2018-06-03T04:26:53.211Z,101582.34
2018-06-03T04:29:20.870Z,101581.87
2018-06-03T04:31:48.627Z,101585.78
2018-06-03T04:34:16.298Z,101585.30
2018-06-03T04:36:43.923Z,101589.19
2018-06-03T04:39:11.584Z,101584.73
2018-06-03T04:41:39.206Z,101580.75
2018-06-03T04:44:06.851Z,101590.77
2018-06-03T04:46:34.471Z,101588.95
2018-06-03T04:49:02.111Z,101593.27
2018-06-03T04:51:29.824Z,101593.66
2018-06-03T04:53:57.480Z,101595.38
2018-06-03T04:56:25.105Z,101601.04
2018-06-03T04:58:52.719Z,101602.78
2018-06-03T05:01:20.368Z,101601.86
2018-06-03T05:03:48.049Z,101604.47
2018-06-03T05:06:15.695Z,101602.28
2018-06-03T05:08:43.375Z,101602.70
2018-06-03T05:11:11.030Z,101604.00
2018-06-03T05:13:38.652Z,101599.59
2018-06-03T05:16:06.291Z,101600.45
2018-06-03T05:18:34.014Z,101608.30
2018-06-03T05:21:01.679Z,101599.45
2018-06-03T05:23:29.401Z,101599.43
2018-06-03T05:25:56.983Z,101606.43
2018-06-03T05:28:24.612Z,101600.70
2018-06-03T05:30:52.250Z,101602.90
2018-06-03T05:33:19.877Z,101603.30
2018-06-03T05:35:47.551Z,101607.17
2018-06-03T05:38:15.171Z,101606.71
2018-06-03T05:40:42.813Z,101608.41
2018-06-03T05:43:10.438Z,101610.57
2018-06-03T05:45:38.098Z,101611.00
2018-06-03T05:48:05.719Z,101613.16
2018-06-03T05:50:33.428Z,101610.50
2018-06-03T05:53:01.086Z,101608.25
2018-06-03T05:55:28.727Z,101610.82
2018-06-03T05:57:56.358Z,101611.61
2018-06-03T06:00:23.999Z,101607.13
2018-06-03T06:02:51.620Z,101608.78
2018-06-03T06:05:19.290Z,101612.25
2018-06-03T06:07:46.909Z,101613.47
2018-06-03T06:10:14.562Z,101621.25
2018-06-03T06:12:42.178Z,101624.26
2018-06-03T06:15:09.934Z,101618.02
2018-06-03T06:17:37.582Z,101613.93
2018-06-03T06:20:05.275Z,101619.11
2018-06-03T06:22:32.918Z,101619.47
2018-06-03T06:25:00.595Z,101621.13
2018-06-03T06:27:28.231Z,101624.61
2018-06-03T06:29:55.910Z,101621.02
2018-06-03T06:32:23.574Z,101625.77
2018-06-03T06:34:51.250Z,101627.88
2018-06-03T06:37:18.899Z,101625.09
2018-06-03T06:39:46.534Z,101621.43
2018-06-03T06:42:14.176Z,101622.20
2018-06-03T06:44:41.887Z,101630.91
2018-06-03T06:47:09.551Z,101635.62
2018-06-03T06:49:37.225Z,101638.07
2018-06-03T06:52:04.981Z,101633.50
2018-06-03T06:54:32.643Z,101636.36
2018-06-03T06:57:00.283Z,101644.05
2018-06-03T06:59:27.899Z,101643.02
2018-06-03T07:01:55.535Z,101642.91
2018-06-03T07:04:23.159Z,101642.38
2018-06-03T07:06:50.807Z,101642.33
2018-06-03T07:09:18.519Z,101644.55
2018-06-03T07:11:46.279Z,101647.63
2018-06-03T07:14:13.895Z,101650.59
2018-06-03T07:16:41.536Z,101653.11
2018-06-03T07:19:09.157Z,101654.34
2018-06-03T07:21:36.796Z,101651.58
2018-06-03T07:24:04.412Z,101650.57
2018-06-03T07:26:32.075Z,101648.98
2018-06-03T07:28:59.724Z,101649.52
2018-06-03T07:31:27.344Z,101646.87
2018-06-03T07:33:54.991Z,101652.23
2018-06-03T07:36:22.702Z,101649.80
2018-06-03T07:38:50.361Z,101657.13
2018-06-03T07:41:17.983Z,101654.33
2018-06-03T07:43:45.627Z,101656.49
2018-06-03T07:46:13.356Z,101664.30
2018-06-03T07:48:41.015Z,101659.66
2018-06-03T07:51:08.642Z,101658.10
2018-06-03T07:53:36.283Z,101657.06
2018-06-03T07:56:04.010Z,101666.22
2018-06-03T07:58:31.648Z,101665.14
2018-06-03T08:00:59.269Z,101668.48
2018-06-03T08:03:26.911Z,101666.11
2018-06-03T08:05:54.588Z,101669.44
2018-06-03T08:08:22.316Z,101667.92
2018-06-03T08:10:49.942Z,101670.98
2018-06-03T08:13:17.572Z,101665.73
2018-06-03T08:15:45.224Z,101666.23
2018-06-03T08:18:12.867Z,101667.62
2018-06-03T08:20:40.627Z,101672.09
2018-06-03T08:23:08.246Z,101669.44
2018-06-03T08:25:35.899Z,101665.61
2018-06-03T08:28:03.516Z,101666.08
2018-06-03T08:30:31.167Z,101666.56
2018-06-03T08:32:58.783Z,101665.67
2018-06-03T08:35:26.591Z,101665.03
2018-06-03T08:37:54.255Z,101664.34
2018-06-03T08:40:21.900Z,101669.14
2018-06-03T08:42:49.582Z,101661.91
2018-06-03T08:45:17.223Z,101670.01
2018-06-03T08:47:44.839Z,101668.77
2018-06-03T08:50:12.558Z,101661.86
2018-06-03T08:52:40.551Z,101665.98
2018-06-03T08:55:08.302Z,101668.83
2018-06-03T08:57:35.919Z,101669.51
2018-06-03T09:00:03.535Z,101676.29
2018-06-03T09:02:31.175Z,101672.83
2018-06-03T09:04:58.853Z,101669.23
2018-06-03T09:07:26.498Z,101673.66
2018-06-03T09:09:54.123Z,101668.52
2018-06-03T09:12:21.836Z,101670.03
2018-06-03T09:14:49.499Z,101670.50
2018-06-03T09:17:17.139Z,101668.46
2018-06-03T09:19:44.755Z,101666.30
2018-06-03T09:22:12.486Z,101664.42
2018-06-03T09:24:40.107Z,101666.22
2018-06-03T09:27:07.763Z,101669.30
2018-06-03T09:29:35.419Z,101672.36
2018-06-03T09:32:03.080Z,101667.67
2018-06-03T09:34:30.699Z,101664.13
2018-06-03T09:36:58.319Z,101670.30
2018-06-03T09:39:26.015Z,101667.84
2018-06-03T09:41:53.687Z,101664.91
2018-06-03T09:44:21.357Z,101668.93
2018-06-03T09:46:48.983Z,101667.90
2018-06-03T09:49:16.666Z,101662.00
2018-06-03T09:51:44.310Z,101668.06
2018-06-03T09:54:11.959Z,101663.77
2018-06-03T09:56:39.671Z,101665.11
2018-06-03T09:59:07.324Z,101665.27
2018-06-03T10:01:34.944Z,101664.03
2018-06-03T10:04:02.584Z,101659.83
2018-06-03T10:06:30.303Z,101661.45
2018-06-03T10:08:57.949Z,101661.12
2018-06-03T10:11:25.561Z,101659.39
2018-06-03T10:13:53.198Z,101656.95
2018-06-03T10:16:20.819Z,101658.36
2018-06-03T10:18:48.491Z,101656.09
2018-06-03T10:21:16.110Z,101664.77
2018-06-03T10:23:43.727Z,101658.84
2018-06-03T10:26:11.371Z,101662.36
2018-06-03T10:28:38.991Z,101664.11
2018-06-03T10:31:06.635Z,101653.63
2018-06-03T10:33:34.275Z,101651.58
2018-06-03T10:36:01.916Z,101658.65
2018-06-03T10:38:29.539Z,101660.62
2018-06-03T10:40:57.175Z,101652.95
2018-06-03T10:43:24.835Z,101652.73
2018-06-03T10:45:52.475Z,101651.77
2018-06-03T10:48:20.095Z,101656.38
2018-06-03T10:50:47.735Z,101656.33
2018-06-03T10:53:15.379Z,101652.58
2018-06-03T10:55:43.021Z,101654.28
2018-06-03T10:58:10.642Z,101654.34
2018-06-03T11:00:38.278Z,101657.25
2018-06-03T11:03:05.922Z,101652.80
2018-06-03T11:05:33.640Z,101661.09
2018-06-03T11:08:01.227Z,101657.94
2018-06-03T11:10:28.887Z,101655.61
2018-06-03T11:12:56.566Z,101656.73
2018-06-03T11:15:24.232Z,101654.02
2018-06-03T11:17:51.847Z,101652.48
2018-06-03T11:20:19.555Z,101653.01
2018-06-03T11:22:47.200Z,101652.82
2018-06-03T11:25:14.815Z,101653.55
2018-06-03T11:27:42.454Z,101647.84
2018-06-03T11:30:10.106Z,101650.80
2018-06-03T11:32:37.770Z,101650.97
2018-06-03T11:35:05.430Z,101647.63
2018-06-03T11:37:33.091Z,101640.45
2018-06-03T11:40:00.710Z,101639.92
2018-06-03T11:42:28.417Z,101636.02
2018-06-03T11:44:56.039Z,101636.87
2018-06-03T11:47:23.747Z,101638.11
2018-06-03T11:49:51.403Z,101642.47
2018-06-03T11:52:19.027Z,101643.37
2018-06-03T11:54:46.727Z,101637.67
2018-06-03T11:57:14.392Z,101635.38
2018-06-03T11:59:42.030Z,101626.31
2018-06-03T12:02:09.680Z,101632.56
2018-06-03T12:04:37.318Z,101632.92
2018-06-03T12:07:04.939Z,101638.84
2018-06-03T12:09:32.591Z,101638.38
2018-06-03T12:12:00.258Z,101642.39
2018-06-03T12:14:27.903Z,101638.66
2018-06-03T12:16:55.591Z,101637.00
2018-06-03T12:19:23.234Z,101639.40
2018-06-03T12:21:50.856Z,101635.44
2018-06-03T12:24:18.499Z,101633.80
2018-06-03T12:26:46.116Z,101630.70
2018-06-03T12:29:13.743Z,101627.05
2018-06-03T12:31:41.455Z,101633.67
2018-06-03T12:34:09.107Z,101625.12
2018-06-03T12:36:36.747Z,101634.80
2018-06-03T12:39:04.369Z,101627.33
2018-06-03T12:41:32.012Z,101622.86
2018-06-03T12:44:32.331Z,101628.11
2018-06-03T12:47:00.738Z,101624.64
2018-06-03T12:49:29.111Z,101623.31
2018-06-03T12:51:57.527Z,101620.37
2018-06-03T12:54:25.931Z,101619.84
2018-06-03T12:56:54.335Z,101622.56
2018-06-03T12:59:22.739Z,101622.89
2018-06-03T13:01:51.191Z,101625.45
2018-06-03T13:04:19.571Z,101623.78
2018-06-03T13:06:47.987Z,101618.30
2018-06-03T13:09:16.379Z,101618.83
2018-06-03T13:11:44.838Z,101623.81
2018-06-03T13:14:13.187Z,101612.38
2018-06-03T13:16:41.615Z,101597.22
2018-06-03T13:19:10.032Z,101609.58
2018-06-03T13:21:38.403Z,101606.91
2018-06-03T13:24:06.803Z,101606.52
2018-06-03T13:26:35.183Z,101608.39
2018-06-03T13:29:03.587Z,101607.42
2018-06-03T13:31:31.971Z,101613.11
2018-06-03T13:34:00.378Z,101612.52
2018-06-03T13:36:28.763Z,101612.52
2018-06-03T13:38:57.184Z,101601.77
2018-06-03T13:41:25.559Z,101603.41
2018-06-03T13:43:53.962Z,101601.80
2018-06-03T13:46:22.351Z,101591.06
2018-06-03T13:48:50.779Z,101594.45
2018-06-03T13:51:19.170Z,101589.05
2018-06-03T13:53:47.582Z,101586.86
2018-06-03T13:56:15.992Z,101581.11
2018-06-03T13:58:44.427Z,101575.66
2018-06-03T14:01:12.811Z,101577.52
2018-06-03T14:03:41.222Z,101577.25
2018-06-03T14:06:09.598Z,101572.45
2018-06-03T14:08:38.002Z,101572.06
2018-06-03T14:11:06.378Z,101569.98
2018-06-03T14:13:34.790Z,101564.89
2018-06-03T14:16:03.174Z,101569.98
2018-06-03T14:18:31.581Z,101573.88
2018-06-03T14:20:59.989Z,101561.63
2018-06-03T14:23:28.405Z,101563.32
2018-06-03T14:25:56.785Z,101560.56
2018-06-03T14:28:25.199Z,101562.95
2018-06-03T14:30:53.583Z,101557.62
2018-06-03T14:33:21.995Z,101554.52
2018-06-03T14:35:50.380Z,101549.02
2018-06-03T14:38:18.819Z,101552.41
2018-06-03T14:40:47.204Z,101543.63
2018-06-03T14:43:15.587Z,101554.42
2018-06-03T14:45:43.986Z,101537.08
2018-06-03T14:48:12.371Z,101535.63
2018-06-03T14:50:40.842Z,101535.00
2018-06-03T14:53:09.195Z,101532.66
2018-06-03T14:55:37.606Z,101533.13
2018-06-03T14:58:06.007Z,101533.97
2018-06-03T15:00:34.363Z,101525.02
2018-06-03T15:03:02.747Z,101527.47
2018-06-03T15:05:31.154Z,101523.70
2018-06-03T15:07:59.544Z,101529.30
2018-06-03T15:10:27.951Z,101523.33
2018-06-03T15:12:56.335Z,101515.65
2018-06-03T15:15:24.744Z,101521.46
2018-06-03T15:17:53.126Z,101521.08
2018-06-03T15:20:21.580Z,101520.60
2018-06-03T15:22:49.980Z,101520.55
2018-06-03T15:25:18.395Z,101518.56
2018-06-03T15:27:46.788Z,101518.56
2018-06-03T15:30:15.198Z,101520.33
2018-06-03T15:32:43.593Z,101515.34
2018-06-03T15:35:12.003Z,101512.63
2018-06-03T15:37:40.386Z,101513.25
2018-06-03T15:40:08.796Z,101512.98
2018-06-03T15:42:37.259Z,101509.92
2018-06-03T15:45:05.668Z,101513.93
2018-06-03T15:47:34.071Z,101512.27
2018-06-03T15:50:02.475Z,101514.67
2018-06-03T15:52:30.863Z,101514.55
2018-06-03T15:54:59.283Z,101513.93
2018-06-03T15:57:27.728Z,101513.61
2018-06-03T15:59:56.108Z,101517.66
2018-06-03T16:02:24.518Z,101514.97
2018-06-03T16:04:52.903Z,101512.02
2018-06-03T16:07:21.430Z,101509.62
2018-06-03T16:09:49.819Z,101516.89
2018-06-03T16:12:18.232Z,101515.98
2018-06-03T16:14:47.235Z,101515.05
2018-06-03T16:17:15.667Z,101510.44
2018-06-03T16:19:44.055Z,101511.91
2018-06-03T16:22:12.478Z,101513.85
2018-06-03T16:24:40.880Z,101504.97
2018-06-03T16:27:09.287Z,101500.72
2018-06-03T16:29:37.667Z,101500.39
2018-06-03T16:32:06.261Z,101497.38
2018-06-03T16:34:34.635Z,101489.88
2018-06-03T16:37:03.048Z,101492.00
2018-06-03T16:39:31.423Z,101492.73
2018-06-03T16:41:59.822Z,101490.22
2018-06-03T16:44:28.210Z,101487.95
2018-06-03T16:46:56.615Z,101485.67
2018-06-03T16:49:25.015Z,101482.08
2018-06-03T16:51:53.422Z,101479.41
2018-06-03T16:54:21.815Z,101469.30
2018-06-03T16:56:50.327Z,101474.39
2018-06-03T16:59:18.732Z,101476.04
2018-06-03T17:01:47.807Z,101472.03
2018-06-03T17:04:16.194Z,101471.84
2018-06-03T17:06:44.716Z,101475.70
2018-06-03T17:09:13.095Z,101465.25
2018-06-03T17:11:41.499Z,101460.55
2018-06-03T17:14:09.888Z,101468.07
2018-06-03T17:16:38.294Z,101464.30
2018-06-03T17:19:06.682Z,101468.88
2018-06-03T17:21:35.262Z,101465.39
2018-06-03T17:24:03.647Z,101459.98
2018-06-03T17:26:32.035Z,101454.84
2018-06-03T17:29:00.439Z,101459.06
2018-06-03T17:31:28.823Z,101450.77
2018-06-03T17:33:57.227Z,101447.39
2018-06-03T17:36:25.607Z,101448.40
2018-06-03T17:38:54.006Z,101444.33
2018-06-03T17:41:22.390Z,101437.81
2018-06-03T17:43:50.821Z,101431.03
2018-06-03T17:46:19.203Z,101436.77
2018-06-03T17:48:47.607Z,101441.55
2018-06-03T17:51:15.992Z,101438.95
2018-06-03T17:53:44.395Z,101431.30
2018-06-03T17:56:12.837Z,101432.44
2018-06-03T17:58:41.246Z,101432.70
2018-06-03T18:01:09.635Z,101438.92
2018-06-03T18:03:38.047Z,101437.33
2018-06-03T18:06:06.567Z,101436.98
2018-06-03T18:08:34.998Z,101434.38
2018-06-03T18:11:03.391Z,101426.44
2018-06-03T18:13:31.808Z,101432.49
2018-06-03T18:16:00.203Z,101425.20
2018-06-03T18:18:28.606Z,101427.52
2018-06-03T18:20:56.988Z,101423.63
2018-06-03T18:23:26.415Z,101428.97
2018-06-03T18:25:54.823Z,101429.02
2018-06-03T18:28:23.236Z,101417.61
2018-06-03T18:30:51.722Z,101431.86
2018-06-03T18:33:20.136Z,101435.08
2018-06-03T18:35:48.520Z,101431.16
2018-06-03T18:38:16.922Z,101433.30
2018-06-03T18:40:45.311Z,101436.35
2018-06-03T18:43:13.739Z,101438.50
2018-06-03T18:45:42.139Z,101441.92
2018-06-03T18:48:10.542Z,101439.61
2018-06-03T18:50:38.927Z,101442.23
2018-06-03T18:53:07.315Z,101446.03
2018-06-03T18:55:35.728Z,101439.80
2018-06-03T18:58:04.140Z,101447.05
2018-06-03T19:00:32.538Z,101439.31
2018-06-03T19:03:03.783Z,101445.27
2018-06-03T19:05:32.195Z,101443.69
2018-06-03T19:08:00.575Z,101444.80
2018-06-03T19:10:28.983Z,101450.36
2018-06-03T19:12:57.364Z,101447.46
2018-06-03T19:15:25.771Z,101446.25
2018-06-03T19:17:54.179Z,101449.94
2018-06-03T19:20:22.583Z,101447.89
2018-06-03T19:22:51.386Z,101443.23
2018-06-03T19:25:19.795Z,101448.34
2018-06-03T19:27:48.250Z,101444.23
2018-06-03T19:30:16.654Z,101439.30
2018-06-03T19:32:45.032Z,101444.41
2018-06-03T19:35:13.439Z,101447.80
2018-06-03T19:37:41.827Z,101444.92
2018-06-03T19:40:10.231Z,101443.71
2018-06-03T19:42:38.610Z,101450.44
2018-06-03T19:45:07.015Z,101441.77
2018-06-03T19:47:35.394Z,101445.52
2018-06-03T19:50:03.800Z,101456.27
2018-06-03T19:52:32.178Z,101453.38
2018-06-03T19:55:00.588Z,101453.53
2018-06-03T19:57:28.986Z,101454.94
2018-06-03T19:59:57.410Z,101454.63
2018-06-03T20:02:25.892Z,101456.41
2018-06-03T20:04:54.298Z,101453.84
2018-06-03T20:07:22.679Z,101449.91
2018-06-03T20:09:51.198Z,101449.05
2018-06-03T20:12:19.575Z,101449.52
2018-06-03T20:14:47.979Z,101443.43
2018-06-03T20:17:16.770Z,101443.52
2018-06-03T20:19:45.174Z,101446.22
2018-06-03T20:22:13.600Z,101450.25
2018-06-03T20:24:42.036Z,101444.18
2018-06-03T20:27:10.413Z,101445.58
2018-06-03T20:29:38.798Z,101450.45
2018-06-03T20:32:07.203Z,101449.16
2018-06-03T20:34:35.930Z,101449.66
2018-06-03T20:37:04.335Z,101451.41
2018-06-03T20:39:32.710Z,101449.22
2018-06-03T20:42:01.137Z,101450.53
2018-06-03T20:44:29.526Z,101451.45
2018-06-03T20:46:57.927Z,101454.97
2018-06-03T20:49:26.307Z,101452.83
2018-06-03T20:51:54.711Z,101458.11
2018-06-03T20:54:23.092Z,101457.73
2018-06-03T20:56:51.499Z,101462.14
2018-06-03T20:59:19.907Z,101458.20
2018-06-03T21:01:48.443Z,101457.39
2018-06-03T21:04:16.832Z,101456.99
2018-06-03T21:06:45.240Z,101457.05
2018-06-03T21:09:13.623Z,101453.58
2018-06-03T21:11:42.034Z,101451.87
2018-06-03T21:14:10.415Z,101452.80
2018-06-03T21:16:38.819Z,101448.49
2018-06-03T21:19:07.191Z,101449.82
2018-06-03T21:21:35.599Z,101450.33
2018-06-03T21:24:03.979Z,101445.12
2018-06-03T21:26:32.383Z,101446.11
2018-06-03T21:29:00.759Z,101440.44
2018-06-03T21:31:29.155Z,101443.55
2018-06-03T21:33:57.540Z,101444.94
2018-06-03T21:36:25.943Z,101447.18
2018-06-03T21:38:54.316Z,101447.24
2018-06-03T21:41:22.718Z,101447.30
2018-06-03T21:43:51.095Z,101445.13
2018-06-03T21:46:19.523Z,101441.23
2018-06-03T21:48:47.911Z,101443.87
2018-06-03T21:51:16.294Z,101446.55
2018-06-03T21:53:44.699Z,101450.11
2018-06-03T21:56:13.079Z,101451.89
2018-06-03T21:58:41.512Z,101450.67
2018-06-03T22:01:09.904Z,101451.55
2018-06-03T22:03:38.311Z,101448.52
2018-06-03T22:06:06.695Z,101455.59
2018-06-03T22:08:35.096Z,101448.16
2018-06-03T22:11:03.484Z,101449.52
2018-06-03T22:13:31.889Z,101449.57
2018-06-03T22:16:00.273Z,101447.90
2018-06-03T22:18:28.680Z,101447.05
2018-06-03T22:20:57.059Z,101445.78
2018-06-03T22:23:25.462Z,101449.33
2018-06-03T22:25:53.845Z,101452.01
2018-06-03T22:28:22.261Z,101449.42
2018-06-03T22:30:51.198Z,101441.56
2018-06-03T22:33:19.599Z,101446.42
2018-06-03T22:35:47.983Z,101442.48
2018-06-03T22:38:16.390Z,101438.58
2018-06-03T22:40:44.772Z,101439.49
2018-06-03T22:43:13.166Z,101439.53
2018-06-03T22:45:41.548Z,101439.59
2018-06-03T22:48:09.960Z,101441.36
2018-06-03T22:50:38.346Z,101447.08
2018-06-03T22:53:06.840Z,101445.36
2018-06-03T22:55:35.219Z,101444.98
2018-06-03T22:58:03.653Z,101438.45
2018-06-03T23:00:32.951Z,101434.09
2018-06-03T23:03:06.746Z,101437.22
2018-06-03T23:05:35.346Z,101432.45
2018-06-03T23:08:03.752Z,101438.61
2018-06-03T23:10:32.138Z,101443.47
2018-06-03T23:13:00.554Z,101441.74
2018-06-03T23:15:28.938Z,101445.72
2018-06-03T23:17:57.503Z,101439.19
2018-06-03T23:20:25.911Z,101444.48
2018-06-03T23:22:54.290Z,101437.98
2018-06-03T23:25:22.698Z,101438.02
2018-06-03T23:27:51.075Z,101434.11
2018-06-03T23:30:19.483Z,101433.28
2018-06-03T23:32:47.858Z,101431.55
2018-06-03T23:35:16.271Z,101438.56
2018-06-03T23:37:44.657Z,101428.09
2018-06-03T23:40:13.098Z,101421.99
2018-06-03T23:42:41.499Z,101423.31
2018-06-03T23:45:09.922Z,101421.13
2018-06-03T23:47:38.302Z,101415.87
2018-06-03T23:50:06.702Z,101415.45
2018-06-03T23:52:35.084Z,101411.09
2018-06-03T23:55:03.482Z,101408.50
2018-06-03T23:57:31.943Z,101412.89
